Ludivine F/v — FVXR — position and weather

sailwx.info

Track history (hours):
 
Tides and Currents Weather Stations Pressure Air Temp Water Temp Dewpoint Dewpoint Depression Visibility Wind Speed Wind Dir Waves Ship Positions

Ludivine F/v

Last reported at 2018-Feb-22 14:28 UTC. Time now 2018-Feb-22 14:53 UTC.
Position N 48°32' W 005°18'.

Length 16 m.

Type: Fishing. MMSI: 227988000.

Date/timePositionNaut miles runAvg speedWind from/ knotsBaromVisibWave heightAir tempDewpointWater temp
2018-Feb-22 14:28N 48°32' W 005°18'3 5.6
2018-Feb-22 14:00N 48°33' W 005°14'1 2.4
2018-Feb-22 13:30N 48°32' W 005°15'1 2.2
2018-Feb-22 12:57N 48°31' W 005°17'3 7.4
2018-Feb-22 12:30N 48°33' W 005°13'3 6.5
2018-Feb-22 12:01N 48°36' W 005°10'2 4.9
2018-Feb-22 11:31N 48°38' W 005°13'1 2.9
2018-Feb-22 11:00N 48°38' W 005°15'4 7.7
2018-Feb-22 10:28N 48°36' W 005°20'1 2.1
2018-Feb-22 10:01N 48°36' W 005°21'5 8.0
2018-Feb-22 09:26N 48°39' W 005°16'3 7.4
2018-Feb-22 09:00N 48°41' W 005°12'1 2.0
2018-Feb-22 08:30N 48°40' W 005°11'4 7.3
2018-Feb-22 08:01N 48°37' W 005°07'4 7.2
2018-Feb-22 07:30N 48°35' W 005°04'3 6.8
2018-Feb-22 07:00N 48°32' W 005°01'3 6.4
2018-Feb-22 06:30N 48°30' W 004°58'4 7.8
2018-Feb-22 06:00N 48°26' W 004°54'4 8.3
2018-Feb-22 05:31N 48°23' W 004°50'3 0.2
2018-Feb-21 15:13N 48°22' W 004°47'0 0.6
2018-Feb-21 15:00N 48°22' W 004°47'0 0.0
2018-Feb-21 14:30N 48°22' W 004°47'0 0.1
2018-Feb-21 14:00N 48°22' W 004°47'4 7.6
2018-Feb-21 13:30N 48°24' W 004°51'4 8.4
2018-Feb-21 13:00N 48°27' W 004°55'4 8.0
2018-Feb-21 12:30N 48°30' W 005°00'3 6.9
2018-Feb-21 12:00N 48°31' W 005°05'3 6.8
2018-Feb-21 11:30N 48°33' W 005°09'4 7.3
2018-Feb-21 11:00N 48°35' W 005°14'4 7.6
2018-Feb-21 10:30N 48°37' W 005°19'7 6.1
2018-Feb-21 09:17N 48°30' W 005°24'1 1.9
2018-Feb-21 08:56N 48°31' W 005°23'3 7.6
2018-Feb-21 08:29N 48°34' W 005°23'2 3.8
2018-Feb-21 08:00N 48°35' W 005°20'3 7.0
2018-Feb-21 07:30N 48°33' W 005°16'3 6.6
2018-Feb-21 07:00N 48°32' W 005°11'3 5.6
2018-Feb-21 06:30N 48°31' W 005°07'3 6.8
2018-Feb-21 06:00N 48°29' W 005°03'3 6.3
2018-Feb-21 05:30N 48°28' W 004°58'4 7.5
2018-Feb-21 05:00N 48°26' W 004°54'4 7.5
2018-Feb-21 04:30N 48°23' W 004°50'  
2018-Feb-15 10:40N 48°22' W 004°47'0 0.0
2018-Feb-15 10:30N 48°22' W 004°47'0 0.0
2018-Feb-15 09:59N 48°22' W 004°47'0 0.0
2018-Feb-14 12:30N 48°22' W 004°47'0 0.2
2018-Feb-14 12:00N 48°22' W 004°47'0 0.0
2018-Feb-14 11:30N 48°22' W 004°47'1 1.6
2018-Feb-14 11:00N 48°22' W 004°48'4 6.7
2018-Feb-14 10:25N 48°25' W 004°52'3 7.3
2018-Feb-14 10:00N 48°27' W 004°55'3 6.8
2018-Feb-14 09:30N 48°29' W 004°59'3 5.9
2018-Feb-14 09:00N 48°31' W 005°02'3 5.6
2018-Feb-14 08:30N 48°33' W 005°06'3 5.5
2018-Feb-14 08:00N 48°35' W 005°09'3 5.7
2018-Feb-14 07:29N 48°37' W 005°12'3 5.9
2018-Feb-14 07:00N 48°39' W 005°15'1 1.8
2018-Feb-14 06:26N 48°40' W 005°14'1 2.2
2018-Feb-14 06:00N 48°40' W 005°13'1 1.4
2018-Feb-14 05:25N 48°39' W 005°13'1 2.1
2018-Feb-14 05:00N 48°39' W 005°14'1 2.2
2018-Feb-14 04:27N 48°38' W 005°16'0 0.7
2018-Feb-14 04:00N 48°38' W 005°16'2 3.4
2018-Feb-14 03:30N 48°39' W 005°14'1 1.5
2018-Feb-14 02:59N 48°38' W 005°14'1 2.2
2018-Feb-14 02:29N 48°38' W 005°15'1 1.8
2018-Feb-14 01:59N 48°37' W 005°16'1 2.6
2018-Feb-14 01:28N 48°36' W 005°18'1 2.5
2018-Feb-14 01:00N 48°35' W 005°19'1 2.6
2018-Feb-14 00:29N 48°35' W 005°17'4 7.7
2018-Feb-14 00:00N 48°33' W 005°13'4 7.8
2018-Feb-13 23:30N 48°31' W 005°07'4 7.6
2018-Feb-13 23:00N 48°29' W 005°03'1 1.5
2018-Feb-13 22:30N 48°28' W 005°03'0 0.0
2018-Feb-13 22:00N 48°28' W 005°03'0 0.0
2018-Feb-13 21:30N 48°28' W 005°03'0 0.0
2018-Feb-13 21:00N 48°28' W 005°03'0 0.0
2018-Feb-13 20:29N 48°28' W 005°03'0 0.0
2018-Feb-13 20:00N 48°28' W 005°03'0 0.0
2018-Feb-13 19:30N 48°28' W 005°03'0 0.0
2018-Feb-13 19:00N 48°28' W 005°03'0 0.0
2018-Feb-13 18:30N 48°28' W 005°03'0 0.0
2018-Feb-13 18:00N 48°28' W 005°03'0 0.0
2018-Feb-13 17:29N 48°28' W 005°03'2 5.0
2018-Feb-13 17:00N 48°30' W 005°03'4 8.3
2018-Feb-13 16:30N 48°35' W 005°05'4 7.9
2018-Feb-13 16:00N 48°38' W 005°06'4 7.7
2018-Feb-13 15:29N 48°42' W 005°08'1 2.0
2018-Feb-13 15:00N 48°42' W 005°10'1 2.1
2018-Feb-13 14:30N 48°41' W 005°11'1 1.4
2018-Feb-13 14:00N 48°41' W 005°12'1 2.6
2018-Feb-13 13:29N 48°41' W 005°14'1 1.8
2018-Feb-13 12:59N 48°40' W 005°15'1 2.1
2018-Feb-13 12:27N 48°40' W 005°16'0 1.0
2018-Feb-13 12:00N 48°40' W 005°17'2 1.8
2018-Feb-13 10:51N 48°38' W 005°19'1 1.7
2018-Feb-13 10:13N 48°38' W 005°20'1 2.8
2018-Feb-13 09:55N 48°37' W 005°19'1 1.9
2018-Feb-13 09:25N 48°38' W 005°18'1 2.1
2018-Feb-13 09:00N 48°38' W 005°17'1 1.8
2018-Feb-13 08:30N 48°38' W 005°15'2 3.6
2018-Feb-13 08:00N 48°38' W 005°13'1 1.9
2018-Feb-13 07:30N 48°39' W 005°12'1 1.7
2018-Feb-13 06:59N 48°39' W 005°11'0 0.9
2018-Feb-13 06:30N 48°39' W 005°10'4 7.0
2018-Feb-13 06:00N 48°36' W 005°06'3 7.1
2018-Feb-13 05:30N 48°34' W 005°03'4 7.3
2018-Feb-13 05:00N 48°31' W 004°60'3 6.5
2018-Feb-13 04:30N 48°28' W 004°56'4 7.4
2018-Feb-13 04:00N 48°26' W 004°53'3 6.8
2018-Feb-13 03:30N 48°23' W 004°49'  
Track history (hours):
 
Tides and Currents Weather Stations Pressure Air Temp Water Temp Dewpoint Dewpoint Depression Visibility Wind Speed Wind Dir Waves Ship Positions

Ludivine F/v

Last reported at 2018-Feb-22 14:28 UTC. Time now 2018-Feb-22 14:53 UTC.
Position N 48°32' W 005°18'.

Length 16 m.

Type: Fishing. MMSI: 227988000.

Date/timePositionNaut miles runAvg speedWind from/ knotsBaromVisibWave heightAir tempDewpointWater temp
2018-Feb-22 14:28N 48°32' W 005°18'3 5.6
2018-Feb-22 14:00N 48°33' W 005°14'1 2.4
2018-Feb-22 13:30N 48°32' W 005°15'1 2.2
2018-Feb-22 12:57N 48°31' W 005°17'3 7.4
2018-Feb-22 12:30N 48°33' W 005°13'3 6.5
2018-Feb-22 12:01N 48°36' W 005°10'2 4.9
2018-Feb-22 11:31N 48°38' W 005°13'1 2.9
2018-Feb-22 11:00N 48°38' W 005°15'4 7.7
2018-Feb-22 10:28N 48°36' W 005°20'1 2.1
2018-Feb-22 10:01N 48°36' W 005°21'5 8.0
2018-Feb-22 09:26N 48°39' W 005°16'3 7.4
2018-Feb-22 09:00N 48°41' W 005°12'1 2.0
2018-Feb-22 08:30N 48°40' W 005°11'4 7.3
2018-Feb-22 08:01N 48°37' W 005°07'4 7.2
2018-Feb-22 07:30N 48°35' W 005°04'3 6.8
2018-Feb-22 07:00N 48°32' W 005°01'3 6.4
2018-Feb-22 06:30N 48°30' W 004°58'4 7.8
2018-Feb-22 06:00N 48°26' W 004°54'4 8.3
2018-Feb-22 05:31N 48°23' W 004°50'3 0.2
2018-Feb-21 15:13N 48°22' W 004°47'0 0.6
2018-Feb-21 15:00N 48°22' W 004°47'0 0.0
2018-Feb-21 14:30N 48°22' W 004°47'0 0.1
2018-Feb-21 14:00N 48°22' W 004°47'4 7.6
2018-Feb-21 13:30N 48°24' W 004°51'4 8.4
2018-Feb-21 13:00N 48°27' W 004°55'4 8.0
2018-Feb-21 12:30N 48°30' W 005°00'3 6.9
2018-Feb-21 12:00N 48°31' W 005°05'3 6.8
2018-Feb-21 11:30N 48°33' W 005°09'4 7.3
2018-Feb-21 11:00N 48°35' W 005°14'4 7.6
2018-Feb-21 10:30N 48°37' W 005°19'7 6.1
2018-Feb-21 09:17N 48°30' W 005°24'1 1.9
2018-Feb-21 08:56N 48°31' W 005°23'3 7.6
2018-Feb-21 08:29N 48°34' W 005°23'2 3.8
2018-Feb-21 08:00N 48°35' W 005°20'3 7.0
2018-Feb-21 07:30N 48°33' W 005°16'3 6.6
2018-Feb-21 07:00N 48°32' W 005°11'3 5.6
2018-Feb-21 06:30N 48°31' W 005°07'3 6.8
2018-Feb-21 06:00N 48°29' W 005°03'3 6.3
2018-Feb-21 05:30N 48°28' W 004°58'4 7.5
2018-Feb-21 05:00N 48°26' W 004°54'4 7.5
2018-Feb-21 04:30N 48°23' W 004°50'  
2018-Feb-15 10:40N 48°22' W 004°47'0 0.0
2018-Feb-15 10:30N 48°22' W 004°47'0 0.0
2018-Feb-15 09:59N 48°22' W 004°47'0 0.0
2018-Feb-14 12:30N 48°22' W 004°47'0 0.2
2018-Feb-14 12:00N 48°22' W 004°47'0 0.0
2018-Feb-14 11:30N 48°22' W 004°47'1 1.6
2018-Feb-14 11:00N 48°22' W 004°48'4 6.7
2018-Feb-14 10:25N 48°25' W 004°52'3 7.3
2018-Feb-14 10:00N 48°27' W 004°55'3 6.8
2018-Feb-14 09:30N 48°29' W 004°59'3 5.9
2018-Feb-14 09:00N 48°31' W 005°02'3 5.6
2018-Feb-14 08:30N 48°33' W 005°06'3 5.5
2018-Feb-14 08:00N 48°35' W 005°09'3 5.7
2018-Feb-14 07:29N 48°37' W 005°12'3 5.9
2018-Feb-14 07:00N 48°39' W 005°15'1 1.8
2018-Feb-14 06:26N 48°40' W 005°14'1 2.2
2018-Feb-14 06:00N 48°40' W 005°13'1 1.4
2018-Feb-14 05:25N 48°39' W 005°13'1 2.1
2018-Feb-14 05:00N 48°39' W 005°14'1 2.2
2018-Feb-14 04:27N 48°38' W 005°16'0 0.7
2018-Feb-14 04:00N 48°38' W 005°16'2 3.4
2018-Feb-14 03:30N 48°39' W 005°14'1 1.5
2018-Feb-14 02:59N 48°38' W 005°14'1 2.2
2018-Feb-14 02:29N 48°38' W 005°15'1 1.8
2018-Feb-14 01:59N 48°37' W 005°16'1 2.6
2018-Feb-14 01:28N 48°36' W 005°18'1 2.5
2018-Feb-14 01:00N 48°35' W 005°19'1 2.6
2018-Feb-14 00:29N 48°35' W 005°17'4 7.7
2018-Feb-14 00:00N 48°33' W 005°13'4 7.8
2018-Feb-13 23:30N 48°31' W 005°07'4 7.6
2018-Feb-13 23:00N 48°29' W 005°03'1 1.5
2018-Feb-13 22:30N 48°28' W 005°03'0 0.0
2018-Feb-13 22:00N 48°28' W 005°03'0 0.0
2018-Feb-13 21:30N 48°28' W 005°03'0 0.0
2018-Feb-13 21:00N 48°28' W 005°03'0 0.0
2018-Feb-13 20:29N 48°28' W 005°03'0 0.0
2018-Feb-13 20:00N 48°28' W 005°03'0 0.0
2018-Feb-13 19:30N 48°28' W 005°03'0 0.0
2018-Feb-13 19:00N 48°28' W 005°03'0 0.0
2018-Feb-13 18:30N 48°28' W 005°03'0 0.0
2018-Feb-13 18:00N 48°28' W 005°03'0 0.0
2018-Feb-13 17:29N 48°28' W 005°03'2 5.0
2018-Feb-13 17:00N 48°30' W 005°03'4 8.3
2018-Feb-13 16:30N 48°35' W 005°05'4 7.9
2018-Feb-13 16:00N 48°38' W 005°06'4 7.7
2018-Feb-13 15:29N 48°42' W 005°08'1 2.0
2018-Feb-13 15:00N 48°42' W 005°10'1 2.1
2018-Feb-13 14:30N 48°41' W 005°11'1 1.4
2018-Feb-13 14:00N 48°41' W 005°12'1 2.6
2018-Feb-13 13:29N 48°41' W 005°14'1 1.8
2018-Feb-13 12:59N 48°40' W 005°15'1 2.1
2018-Feb-13 12:27N 48°40' W 005°16'0 1.0
2018-Feb-13 12:00N 48°40' W 005°17'2 1.8
2018-Feb-13 10:51N 48°38' W 005°19'1 1.7
2018-Feb-13 10:13N 48°38' W 005°20'1 2.8
2018-Feb-13 09:55N 48°37' W 005°19'1 1.9
2018-Feb-13 09:25N 48°38' W 005°18'1 2.1
2018-Feb-13 09:00N 48°38' W 005°17'1 1.8
2018-Feb-13 08:30N 48°38' W 005°15'2 3.6
2018-Feb-13 08:00N 48°38' W 005°13'1 1.9
2018-Feb-13 07:30N 48°39' W 005°12'1 1.7
2018-Feb-13 06:59N 48°39' W 005°11'0 0.9
2018-Feb-13 06:30N 48°39' W 005°10'4 7.0
2018-Feb-13 06:00N 48°36' W 005°06'3 7.1
2018-Feb-13 05:30N 48°34' W 005°03'4 7.3
2018-Feb-13 05:00N 48°31' W 004°60'3 6.5
2018-Feb-13 04:30N 48°28' W 004°56'4 7.4
2018-Feb-13 04:00N 48°26' W 004°53'3 6.8
2018-Feb-13 03:30N 48°23' W 004°49'  

Dump ship's entire track history